Terminal Aerodrome Forecast
Issued by NWS Sterling, VA

Current Version | Previous Version | Graphics & Text | Print | Product List | Glossary On
Versions: 1 2 3 4 5 6 7 8 9 10 11 12 13 14 15 16 17 18 19 20 21 22 23
000
FTUS41 KLWX 192300
TAFDCA
TAF
KDCA 192330Z 2000/2024 11010KT P6SM FEW050 SCT100
     FM200500 13004KT P6SM SCT070
     FM201000 VRB04KT P6SM FEW025 SCT050
     FM201500 18008KT P6SM BKN050
     FM202000 15006KT P6SM SCT050=

USA.gov is the U.S. government's official web portal to all federal, state and local government web resources and services.